Time;durP1;ratioP1;P1;durP2;ratioP2;P2;SDS_P1;SDS_P2;PMS_P1;PMS_P2;Temp;Humidity;BMP_temperature;BMP_pressure;BME280_temperature;BME280_humidity;BME280_pressure;Samples;Min_cycle;Max_cycle;Signal;HPM_P1;HPM_P2
2022/07/25 00:00:31;;;;;;;10.60;7.70;;;;;;;;;;5008090;28;20026;-42
2022/07/25 00:02:57;;;;;;;11.95;7.78;;;;;;;;;;5004017;28;20113;-49
2022/07/25 00:05:23;;;;;;;12.57;8.73;;;;;;;;;;5004176;28;20239;-42
2022/07/25 00:07:49;;;;;;;10.70;7.85;;;;;;;;;;5004587;28;20029;-42
2022/07/25 00:10:15;;;;;;;13.30;7.97;;;;;;;;;;5004868;28;20057;-41
2022/07/25 00:12:41;;;;;;;11.18;8.48;;;;;;;;;;5004655;28;20112;-43
2022/07/25 00:15:08;;;;;;;11.80;7.63;;;;;;;;;;5003203;28;20737;-42
2022/07/25 00:17:33;;;;;;;9.85;7.10;;;;;;;;;;5005220;28;20040;-42
2022/07/25 00:20:00;;;;;;;10.90;7.97;;;;;;;;;;5004515;28;20096;-42
2022/07/25 00:22:25;;;;;;;8.20;7.47;;;;;;;;;;5003021;28;20037;-41
2022/07/25 00:24:51;;;;;;;10.45;7.75;;;;;;;;;;5005316;28;20031;-42
2022/07/25 00:27:17;;;;;;;8.00;7.20;;;;;;;;;;5004497;28;20022;-43
2022/07/25 00:29:42;;;;;;;11.63;7.65;;;;;;;;;;5003338;28;20026;-43
2022/07/25 00:32:08;;;;;;;8.02;7.32;;;;;;;;;;5002890;28;20378;-45
2022/07/25 00:34:34;;;;;;;8.40;7.60;;;;;;;;;;5003745;28;20034;-42
2022/07/25 00:36:59;;;;;;;11.85;8.15;;;;;;;;;;5007341;28;20054;-44
2022/07/25 00:39:25;;;;;;;11.63;7.72;;;;;;;;;;5004758;28;20136;-42
2022/07/25 00:41:51;;;;;;;12.73;7.68;;;;;;;;;;5004136;28;20482;-44
2022/07/25 00:44:28;;;;;;;9.82;7.40;;;;;;;;;;5007355;28;20026;-42
2022/07/25 00:46:55;;;;;;;13.48;7.45;;;;;;;;;;4999197;28;20034;-42
2022/07/25 00:49:21;;;;;;;9.25;8.15;;;;;;;;;;5006836;28;20097;-43
2022/07/25 00:51:47;;;;;;;8.93;8.07;;;;;;;;;;5003695;28;20022;-42
2022/07/25 00:54:13;;;;;;;11.50;8.30;;;;;;;;;;5003013;28;20092;-42
2022/07/25 00:56:39;;;;;;;9.95;7.60;;;;;;;;;;5002768;28;20061;-42
2022/07/25 00:59:04;;;;;;;7.95;7.15;;;;;;;;;;5004809;28;20185;-42
2022/07/25 01:01:30;;;;;;;8.90;7.93;;;;;;;;;;5006396;28;20033;-42
2022/07/25 01:03:56;;;;;;;9.55;7.68;;;;;;;;;;5006721;28;20026;-43
2022/07/25 01:06:22;;;;;;;9.95;8.25;;;;;;;;;;5003652;28;20033;-42
2022/07/25 01:08:48;;;;;;;14.52;8.40;;;;;;;;;;5009673;28;20045;-42
2022/07/25 01:11:14;;;;;;;12.00;8.20;;;;;;;;;;5009084;28;20545;-42
2022/07/25 01:13:40;;;;;;;10.07;8.48;;;;;;;;;;5008633;28;20167;-41
2022/07/25 01:16:06;;;;;;;11.90;8.23;;;;;;;;;;5005807;28;20033;-42
2022/07/25 01:18:33;;;;;;;9.35;8.50;;;;;;;;;;5011389;28;20376;-45
2022/07/25 01:21:00;;;;;;;17.98;8.50;;;;;;;;;;5009812;28;20033;-43
2022/07/25 01:23:26;;;;;;;12.35;8.32;;;;;;;;;;5006882;28;20062;-42
2022/07/25 01:25:52;;;;;;;14.88;8.82;;;;;;;;;;5005288;28;20038;-42
2022/07/25 01:28:18;;;;;;;12.32;8.63;;;;;;;;;;5013805;28;20022;-43
2022/07/25 01:30:44;;;;;;;14.98;8.80;;;;;;;;;;5005686;28;20041;-41
2022/07/25 01:33:15;;;;;;;12.30;9.13;;;;;;;;;;5009965;28;20026;-42
2022/07/25 01:35:42;;;;;;;14.63;9.27;;;;;;;;;;5003301;28;20044;-41
2022/07/25 01:38:07;;;;;;;16.20;9.10;;;;;;;;;;5008068;28;20113;-42
2022/07/25 01:40:33;;;;;;;9.80;8.38;;;;;;;;;;5008975;28;20173;-46
2022/07/25 01:42:59;;;;;;;9.70;8.80;;;;;;;;;;5004917;28;20025;-42
2022/07/25 01:45:24;;;;;;;10.63;8.15;;;;;;;;;;5004491;28;20022;-45
2022/07/25 01:47:50;;;;;;;15.27;8.57;;;;;;;;;;5007222;28;20029;-43
2022/07/25 01:50:16;;;;;;;10.70;7.93;;;;;;;;;;5007799;28;20035;-42
2022/07/25 01:52:42;;;;;;;12.20;8.13;;;;;;;;;;5007987;28;20030;-46
2022/07/25 01:55:09;;;;;;;10.10;8.20;;;;;;;;;;5004992;28;20085;-47
2022/07/25 01:57:35;;;;;;;8.95;8.15;;;;;;;;;;5008208;28;20116;-45
2022/07/25 02:00:02;;;;;;;9.95;8.30;;;;;;;;;;5003696;28;20391;-49
2022/07/25 02:02:33;;;;;;;11.82;7.97;;;;;;;;;;5006746;28;20054;-42
2022/07/25 02:04:59;;;;;;;9.77;8.85;;;;;;;;;;5002460;28;20384;-43
2022/07/25 02:07:25;;;;;;;14.20;8.80;;;;;;;;;;5006628;28;20026;-43
2022/07/25 02:09:50;;;;;;;8.82;8.00;;;;;;;;;;5009087;28;20034;-44
2022/07/25 02:12:16;;;;;;;16.05;8.63;;;;;;;;;;5012146;28;20026;-50
2022/07/25 02:14:42;;;;;;;10.75;8.15;;;;;;;;;;5002842;28;20486;-46
2022/07/25 02:17:07;;;;;;;9.68;8.60;;;;;;;;;;5005065;28;20032;-47
2022/07/25 02:19:33;;;;;;;9.00;8.10;;;;;;;;;;5010351;28;20136;-50
2022/07/25 02:21:59;;;;;;;12.13;8.45;;;;;;;;;;5007308;28;20037;-45
2022/07/25 02:24:25;;;;;;;11.52;8.55;;;;;;;;;;5002523;28;20022;-46
2022/07/25 02:26:51;;;;;;;9.07;8.18;;;;;;;;;;5004840;28;20037;-42
2022/07/25 02:29:16;;;;;;;9.82;8.82;;;;;;;;;;5006686;28;20414;-44
2022/07/25 02:31:42;;;;;;;9.13;8.23;;;;;;;;;;5009854;28;20110;-47
2022/07/25 02:34:08;;;;;;;13.63;8.80;;;;;;;;;;5003937;28;20041;-45
2022/07/25 02:36:33;;;;;;;9.50;8.60;;;;;;;;;;5007522;28;20527;-42
2022/07/25 02:38:59;;;;;;;17.08;8.90;;;;;;;;;;5006655;28;20026;-42
2022/07/25 02:41:25;;;;;;;9.35;8.07;;;;;;;;;;5011382;28;20034;-48
2022/07/25 02:43:51;;;;;;;11.30;8.57;;;;;;;;;;5002966;28;20414;-48
2022/07/25 02:46:16;;;;;;;9.13;8.23;;;;;;;;;;5003629;28;20140;-45
2022/07/25 02:48:42;;;;;;;11.07;8.98;;;;;;;;;;5006252;28;20041;-45
2022/07/25 02:51:08;;;;;;;13.18;9.07;;;;;;;;;;5005574;28;20033;-45
2022/07/25 02:53:33;;;;;;;10.80;8.18;;;;;;;;;;5006566;28;20045;-42
2022/07/25 02:55:59;;;;;;;12.40;8.15;;;;;;;;;;4968446;28;1176082;-42
2022/07/25 02:58:25;;;;;;;12.05;8.45;;;;;;;;;;5005679;28;20042;-45
2022/07/25 03:00:50;;;;;;;10.07;8.32;;;;;;;;;;5009905;28;20030;-47
2022/07/25 03:03:16;;;;;;;8.63;7.70;;;;;;;;;;5006788;28;20048;-42
2022/07/25 03:05:41;;;;;;;9.02;7.63;;;;;;;;;;5003485;28;20030;-41
2022/07/25 03:08:07;;;;;;;9.30;8.18;;;;;;;;;;5003588;28;20029;-44
2022/07/25 03:10:35;;;;;;;13.20;8.40;;;;;;;;;;5011283;28;20057;-42
2022/07/25 03:13:01;;;;;;;11.63;8.25;;;;;;;;;;5007561;28;20022;-40
2022/07/25 03:15:27;;;;;;;9.38;7.97;;;;;;;;;;5008442;28;20030;-46
2022/07/25 03:17:52;;;;;;;9.43;7.78;;;;;;;;;;5006859;28;20493;-47
2022/07/25 03:20:18;;;;;;;13.57;8.38;;;;;;;;;;5004766;28;20018;-43
2022/07/25 03:22:44;;;;;;;9.70;8.18;;;;;;;;;;5005534;28;20104;-42
2022/07/25 03:25:10;;;;;;;9.65;8.63;;;;;;;;;;5003798;28;20036;-42
2022/07/25 03:27:36;;;;;;;8.88;7.97;;;;;;;;;;5005430;28;20086;-44
2022/07/25 03:30:02;;;;;;;9.73;8.05;;;;;;;;;;5008671;28;20136;-44
2022/07/25 03:32:29;;;;;;;8.95;8.05;;;;;;;;;;5005176;28;20038;-43
2022/07/25 03:34:54;;;;;;;9.85;8.43;;;;;;;;;;5006989;28;20038;-42
2022/07/25 03:37:20;;;;;;;16.23;7.70;;;;;;;;;;5007542;28;20030;-44
2022/07/25 03:39:46;;;;;;;11.45;8.23;;;;;;;;;;5004624;28;20076;-43
2022/07/25 03:42:11;;;;;;;9.20;7.97;;;;;;;;;;5005694;28;20030;-43
2022/07/25 03:44:37;;;;;;;8.50;7.68;;;;;;;;;;5004376;28;20030;-41
2022/07/25 03:47:04;;;;;;;10.20;7.97;;;;;;;;;;5009946;28;20534;-47
2022/07/25 03:49:30;;;;;;;16.60;8.23;;;;;;;;;;5006520;28;20034;-43
2022/07/25 03:51:56;;;;;;;13.70;7.72;;;;;;;;;;5006241;28;20088;-43
2022/07/25 03:54:22;;;;;;;12.02;7.80;;;;;;;;;;5008086;28;20088;-43
2022/07/25 03:56:50;;;;;;;11.98;7.93;;;;;;;;;;5006468;28;20541;-42
2022/07/25 03:59:20;;;;;;;13.20;7.50;;;;;;;;;;5009405;28;20026;-44
2022/07/25 04:01:47;;;;;;;11.77;7.93;;;;;;;;;;5004960;28;20036;-44
2022/07/25 04:04:13;;;;;;;8.18;7.47;;;;;;;;;;5004423;28;20069;-43
2022/07/25 04:06:39;;;;;;;9.05;7.55;;;;;;;;;;5004979;28;20038;-42
2022/07/25 04:09:06;;;;;;;10.93;7.15;;;;;;;;;;5007080;28;20036;-46
2022/07/25 04:11:34;;;;;;;8.50;7.70;;;;;;;;;;5008995;28;20114;-45
2022/07/25 04:14:05;;;;;;;10.45;7.45;;;;;;;;;;5003848;28;20031;-45
2022/07/25 04:16:50;;;;;;;8.32;7.38;;;;;;;;;;5006179;28;20030;-45
2022/07/25 04:19:36;;;;;;;9.93;7.80;;;;;;;;;;5006204;28;21381;-42
2022/07/25 04:22:21;;;;;;;8.43;6.93;;;;;;;;;;5002244;28;20038;-42
2022/07/25 04:25:07;;;;;;;13.27;7.40;;;;;;;;;;5004475;28;20065;-42
2022/07/25 04:27:53;;;;;;;11.13;7.97;;;;;;;;;;5005989;28;20048;-42
2022/07/25 04:30:38;;;;;;;15.32;7.97;;;;;;;;;;5004506;28;20034;-43
2022/07/25 04:33:04;;;;;;;16.77;8.00;;;;;;;;;;5007132;28;20100;-44
2022/07/25 04:35:30;;;;;;;15.63;7.78;;;;;;;;;;5009094;28;20041;-43
2022/07/25 04:37:56;;;;;;;8.65;7.65;;;;;;;;;;5007699;28;20034;-42
2022/07/25 04:40:22;;;;;;;13.13;7.88;;;;;;;;;;5006723;28;20025;-40
2022/07/25 04:42:48;;;;;;;9.50;7.35;;;;;;;;;;5002975;28;20442;-44
2022/07/25 04:45:13;;;;;;;13.18;7.60;;;;;;;;;;5004494;28;20044;-42
2022/07/25 04:47:39;;;;;;;14.10;8.38;;;;;;;;;;5002833;28;20025;-45
2022/07/25 04:50:05;;;;;;;13.55;8.02;;;;;;;;;;5003220;28;20498;-43
2022/07/25 04:52:31;;;;;;;8.80;7.90;;;;;;;;;;5006768;28;20025;-43
2022/07/25 04:54:56;;;;;;;13.55;7.90;;;;;;;;;;5009232;28;20050;-43
2022/07/25 04:57:22;;;;;;;8.50;7.47;;;;;;;;;;5005982;28;20058;-42
2022/07/25 04:59:48;;;;;;;10.35;7.75;;;;;;;;;;5006421;28;20379;-42
2022/07/25 05:02:13;;;;;;;9.65;7.70;;;;;;;;;;5007711;28;20060;-46
2022/07/25 05:04:39;;;;;;;12.95;8.70;;;;;;;;;;5007957;28;20034;-42
2022/07/25 05:07:05;;;;;;;10.45;8.07;;;;;;;;;;5003930;28;20497;-41
2022/07/25 05:09:30;;;;;;;11.82;7.78;;;;;;;;;;5008870;28;21133;-42
2022/07/25 05:11:56;;;;;;;8.40;7.60;;;;;;;;;;5007000;28;20034;-46
2022/07/25 05:14:22;;;;;;;9.95;7.70;;;;;;;;;;5005333;28;20026;-45
2022/07/25 05:16:47;;;;;;;14.93;8.15;;;;;;;;;;5001772;28;20038;-42
2022/07/25 05:19:13;;;;;;;9.90;7.80;;;;;;;;;;5005872;28;20046;-42
2022/07/25 05:21:38;;;;;;;9.20;7.25;;;;;;;;;;5008294;28;20041;-41
2022/07/25 05:24:05;;;;;;;10.18;7.40;;;;;;;;;;5005813;28;20030;-42
2022/07/25 05:26:30;;;;;;;7.50;6.82;;;;;;;;;;5004463;28;20080;-45
2022/07/25 05:28:57;;;;;;;14.23;7.63;;;;;;;;;;5006549;28;20061;-43
2022/07/25 05:31:22;;;;;;;9.93;6.88;;;;;;;;;;5007420;28;20113;-42
2022/07/25 05:33:48;;;;;;;8.73;6.72;;;;;;;;;;5002579;28;20459;-43
2022/07/25 05:36:14;;;;;;;14.65;6.72;;;;;;;;;;5004400;28;20033;-42
2022/07/25 05:38:39;;;;;;;10.30;7.07;;;;;;;;;;5006193;28;20030;-43
2022/07/25 05:41:05;;;;;;;7.85;6.40;;;;;;;;;;5006255;28;20152;-42
2022/07/25 05:43:30;;;;;;;11.85;6.88;;;;;;;;;;5008352;28;20022;-45
2022/07/25 05:46:01;;;;;;;11.65;6.80;;;;;;;;;;5006083;28;20026;-42
2022/07/25 05:48:27;;;;;;;10.23;7.05;;;;;;;;;;5005046;28;20029;-41
2022/07/25 05:50:53;;;;;;;11.07;6.93;;;;;;;;;;5004425;28;20184;-42
2022/07/25 05:53:18;;;;;;;8.75;6.63;;;;;;;;;;5010996;28;20050;-44
2022/07/25 05:55:44;;;;;;;8.88;6.45;;;;;;;;;;5009719;28;20045;-43
2022/07/25 05:58:09;;;;;;;10.38;6.28;;;;;;;;;;5005712;28;20042;-42
2022/07/25 06:00:36;;;;;;;12.43;6.82;;;;;;;;;;5009757;28;20378;-42
2022/07/25 06:03:01;;;;;;;16.70;7.18;;;;;;;;;;5003073;28;20023;-40
2022/07/25 06:05:27;;;;;;;8.80;6.32;;;;;;;;;;5005700;28;20509;-43
2022/07/25 06:07:53;;;;;;;11.45;6.60;;;;;;;;;;5007552;28;20525;-42
2022/07/25 06:10:19;;;;;;;10.02;6.00;;;;;;;;;;5008289;28;20030;-48
2022/07/25 06:12:45;;;;;;;7.85;6.45;;;;;;;;;;5005161;28;20038;-42
2022/07/25 06:15:10;;;;;;;9.50;6.38;;;;;;;;;;5009041;28;20029;-42
2022/07/25 06:17:36;;;;;;;14.90;6.80;;;;;;;;;;5007563;28;20029;-42
2022/07/25 06:20:03;;;;;;;11.30;6.70;;;;;;;;;;5008725;28;20478;-42
2022/07/25 06:22:29;;;;;;;12.40;6.90;;;;;;;;;;5010850;28;20076;-42
2022/07/25 06:24:55;;;;;;;9.02;6.78;;;;;;;;;;5006120;28;20105;-41
2022/07/25 06:27:21;;;;;;;9.10;6.55;;;;;;;;;;5010860;28;20108;-42
2022/07/25 06:29:46;;;;;;;13.15;6.28;;;;;;;;;;5009880;28;20424;-42
2022/07/25 06:32:12;;;;;;;6.88;5.72;;;;;;;;;;5009876;28;20029;-42
2022/07/25 06:34:38;;;;;;;9.65;5.95;;;;;;;;;;5006708;28;20030;-42
2022/07/25 06:37:04;;;;;;;7.63;5.95;;;;;;;;;;5006899;28;20041;-42
2022/07/25 06:39:29;;;;;;;11.02;5.85;;;;;;;;;;5009002;28;20018;-42
2022/07/25 06:41:56;;;;;;;10.05;6.18;;;;;;;;;;5004027;28;20872;-41
2022/07/25 06:44:21;;;;;;;8.27;5.40;;;;;;;;;;5008419;28;20021;-42
2022/07/25 06:46:47;;;;;;;8.73;5.50;;;;;;;;;;5005013;28;20038;-42
2022/07/25 06:49:13;;;;;;;7.97;5.47;;;;;;;;;;5009771;28;20304;-42
2022/07/25 06:51:38;;;;;;;5.65;4.97;;;;;;;;;;5010162;28;20096;-42
2022/07/25 06:54:04;;;;;;;11.23;5.18;;;;;;;;;;5008284;28;20022;-42
2022/07/25 06:56:31;;;;;;;9.02;4.45;;;;;;;;;;5010405;28;20070;-42
2022/07/25 06:58:58;;;;;;;5.70;4.00;;;;;;;;;;5006920;28;20034;-42
2022/07/25 07:01:24;;;;;;;6.82;4.13;;;;;;;;;;5009916;28;20033;-43
2022/07/25 07:03:49;;;;;;;8.95;4.13;;;;;;;;;;5003509;28;20030;-47
2022/07/25 07:06:15;;;;;;;6.78;4.57;;;;;;;;;;5008690;28;20591;-42
2022/07/25 07:08:40;;;;;;;8.57;4.90;;;;;;;;;;5010484;28;20042;-44
2022/07/25 07:11:06;;;;;;;8.10;5.43;;;;;;;;;;5008589;28;20022;-44
2022/07/25 07:13:32;;;;;;;8.80;4.47;;;;;;;;;;5009794;28;20044;-42
2022/07/25 07:15:59;;;;;;;12.57;5.13;;;;;;;;;;5006426;28;20026;-42
2022/07/25 07:18:24;;;;;;;17.77;5.75;;;;;;;;;;5007355;28;20068;-42
2022/07/25 07:20:51;;;;;;;20.73;5.75;;;;;;;;;;5010199;28;20041;-42
2022/07/25 07:23:17;;;;;;;16.95;6.22;;;;;;;;;;5008811;28;20026;-45
2022/07/25 07:25:44;;;;;;;11.00;5.00;;;;;;;;;;5007888;28;20033;-42
2022/07/25 07:28:10;;;;;;;12.15;5.25;;;;;;;;;;5002301;28;20034;-44
2022/07/25 07:30:36;;;;;;;22.25;5.40;;;;;;;;;;5008791;28;20395;-44
2022/07/25 07:33:01;;;;;;;19.48;6.03;;;;;;;;;;5003137;28;20026;-42
2022/07/25 07:35:27;;;;;;;50.47;6.80;;;;;;;;;;5006696;28;20105;-44
2022/07/25 07:37:54;;;;;;;16.30;6.07;;;;;;;;;;5006577;28;20040;-44
2022/07/25 07:40:20;;;;;;;15.60;6.85;;;;;;;;;;5008844;28;20113;-45
2022/07/25 07:42:48;;;;;;;8.77;5.93;;;;;;;;;;5005582;28;20032;-43
2022/07/25 07:45:24;;;;;;;15.15;6.70;;;;;;;;;;5000742;28;20368;-42
2022/07/25 07:47:51;;;;;;;11.90;6.50;;;;;;;;;;5002556;28;20052;-43
2022/07/25 07:50:23;;;;;;;7.95;5.30;;;;;;;;;;5000695;28;20591;-42
2022/07/25 07:52:50;;;;;;;12.05;4.68;;;;;;;;;;5007489;28;20028;-44
2022/07/25 07:58:00;;;;;;;8.57;3.50;;;;;;;;;;4999451;28;20798;-45
2022/07/25 08:00:27;;;;;;;8.55;4.43;;;;;;;;;;5002515;28;20091;-47
2022/07/25 08:02:54;;;;;;;5.97;4.18;;;;;;;;;;4995819;28;20033;-44
2022/07/25 08:05:27;;;;;;;7.55;4.32;;;;;;;;;;4993906;28;20049;-44
2022/07/25 08:07:53;;;;;;;12.40;4.65;;;;;;;;;;4994445;28;20041;-45
2022/07/25 08:10:21;;;;;;;8.50;3.40;;;;;;;;;;4987861;28;20041;-43
2022/07/25 08:12:48;;;;;;;7.40;3.85;;;;;;;;;;4986758;28;20542;-44
2022/07/25 08:15:14;;;;;;;6.65;3.67;;;;;;;;;;5000554;28;20048;-42
2022/07/25 08:17:40;;;;;;;8.57;4.53;;;;;;;;;;4991824;28;20026;-42
2022/07/25 08:20:07;;;;;;;8.57;4.65;;;;;;;;;;4991309;28;20152;-43
2022/07/25 08:22:40;;;;;;;6.50;3.92;;;;;;;;;;4995017;28;20053;-41
2022/07/25 08:25:08;;;;;;;5.18;3.85;;;;;;;;;;5000909;28;20638;-42
2022/07/25 08:27:35;;;;;;;8.02;4.28;;;;;;;;;;4996673;28;20045;-43
2022/07/25 08:30:02;;;;;;;8.48;4.00;;;;;;;;;;4993583;28;20027;-42
2022/07/25 08:32:28;;;;;;;5.13;3.78;;;;;;;;;;5001271;28;20026;-45
2022/07/25 08:34:55;;;;;;;4.97;4.25;;;;;;;;;;4998564;28;20117;-43
2022/07/25 08:37:21;;;;;;;12.93;3.90;;;;;;;;;;4994680;28;20431;-45
2022/07/25 08:39:49;;;;;;;5.43;3.72;;;;;;;;;;4992960;28;20102;-46
2022/07/25 08:42:15;;;;;;;10.82;3.83;;;;;;;;;;5002759;28;20026;-42
2022/07/25 08:44:43;;;;;;;6.75;3.80;;;;;;;;;;5005254;28;20038;-43
2022/07/25 08:47:09;;;;;;;4.53;3.75;;;;;;;;;;5005297;28;20088;-44
2022/07/25 08:49:35;;;;;;;6.22;3.50;;;;;;;;;;5005846;28;20033;-44
2022/07/25 08:52:02;;;;;;;5.85;3.70;;;;;;;;;;4990474;28;20034;-45
2022/07/25 08:54:30;;;;;;;10.27;3.97;;;;;;;;;;5000473;28;20479;-43
2022/07/25 08:56:56;;;;;;;5.68;4.03;;;;;;;;;;5000745;28;20069;-44
2022/07/25 08:59:21;;;;;;;4.47;3.78;;;;;;;;;;4997314;28;20038;-42
2022/07/25 09:01:47;;;;;;;7.63;3.92;;;;;;;;;;5001809;28;20030;-42
2022/07/25 09:04:13;;;;;;;5.20;3.88;;;;;;;;;;5000997;28;20523;-47
2022/07/25 09:06:51;;;;;;;5.25;4.13;;;;;;;;;;5006129;28;20505;-43
2022/07/25 09:09:17;;;;;;;4.55;4.15;;;;;;;;;;5000327;28;20035;-48
2022/07/25 09:11:43;;;;;;;9.10;4.10;;;;;;;;;;5002283;28;20471;-50
2022/07/25 09:14:10;;;;;;;7.20;4.28;;;;;;;;;;5002175;28;20072;-44
2022/07/25 09:16:39;;;;;;;6.03;4.07;;;;;;;;;;4997562;28;20100;-43
2022/07/25 09:19:06;;;;;;;6.00;4.15;;;;;;;;;;4989373;28;20057;-44
2022/07/25 09:21:31;;;;;;;8.15;4.38;;;;;;;;;;4997862;28;20027;-47
2022/07/25 09:24:11;;;;;;;7.32;4.40;;;;;;;;;;5004950;28;20378;-43
2022/07/25 09:26:47;;;;;;;4.70;4.20;;;;;;;;;;5006839;28;20034;-47
2022/07/25 09:29:36;;;;;;;9.25;4.30;;;;;;;;;;5001158;28;20467;-44
2022/07/25 09:32:20;;;;;;;9.65;4.43;;;;;;;;;;5006658;28;20057;-48
2022/07/25 09:34:47;;;;;;;7.68;4.40;;;;;;;;;;4998932;28;20046;-43
2022/07/25 09:37:16;;;;;;;5.60;4.07;;;;;;;;;;4994463;28;20576;-45
2022/07/25 09:39:48;;;;;;;8.82;4.30;;;;;;;;;;4995831;28;20030;-45
2022/07/25 09:42:36;;;;;;;6.70;3.30;;;;;;;;;;4992146;28;20601;-48
2022/07/25 09:45:12;;;;;;;5.88;3.05;;;;;;;;;;5001422;28;20348;-44
2022/07/25 09:47:50;;;;;;;4.90;3.90;;;;;;;;;;4990790;28;20030;-45
2022/07/25 09:50:17;;;;;;;7.32;3.20;;;;;;;;;;4989967;28;20064;-47
2022/07/25 09:52:45;;;;;;;4.10;3.20;;;;;;;;;;4989302;28;20030;-49
2022/07/25 09:55:12;;;;;;;7.45;3.17;;;;;;;;;;4995189;28;20045;-44
2022/07/25 09:57:39;;;;;;;8.70;3.30;;;;;;;;;;4991272;28;20035;-43
2022/07/25 10:00:07;;;;;;;5.03;3.25;;;;;;;;;;4993349;28;20081;-48
2022/07/25 10:02:48;;;;;;;8.30;4.40;;;;;;;;;;5000058;28;20038;-43
2022/07/25 10:05:19;;;;;;;4.78;3.40;;;;;;;;;;4995402;28;20960;-45
2022/07/25 10:07:46;;;;;;;;;;;;;;;;;;5000330;28;20089;-44
2022/07/25 10:10:30;;;;;;;7.10;3.63;;;;;;;;;;5008798;28;20285;-42
2022/07/25 10:13:09;;;;;;;8.70;3.38;;;;;;;;;;4999815;28;20022;-47
2022/07/25 10:15:53;;;;;;;5.47;3.50;;;;;;;;;;5000504;28;20025;-45
2022/07/25 10:18:22;;;;;;;5.70;3.47;;;;;;;;;;4999536;28;20026;-45
2022/07/25 10:20:50;;;;;;;6.28;3.40;;;;;;;;;;5000732;28;20527;-43
2022/07/25 10:23:25;;;;;;;5.50;3.25;;;;;;;;;;5003373;28;20498;-44
2022/07/25 10:26:03;;;;;;;4.63;3.35;;;;;;;;;;5005753;28;20037;-43
2022/07/25 10:28:40;;;;;;;10.88;3.88;;;;;;;;;;5004648;28;20018;-43
2022/07/25 10:31:23;;;;;;;4.38;3.38;;;;;;;;;;4999398;28;20029;-43
2022/07/25 10:33:55;;;;;;;10.07;4.25;;;;;;;;;;5003005;28;20060;-46
2022/07/25 10:36:22;;;;;;;7.10;3.80;;;;;;;;;;5000368;28;20631;-48
2022/07/25 10:38:51;;;;;;;7.72;3.97;;;;;;;;;;5006250;28;20589;-43
2022/07/25 10:41:17;;;;;;;6.00;3.67;;;;;;;;;;5003238;28;20026;-43
2022/07/25 10:43:45;;;;;;;10.70;3.60;;;;;;;;;;5000838;28;20014;-45
2022/07/25 10:46:19;;;;;;;10.30;4.32;;;;;;;;;;4997290;28;20070;-43
2022/07/25 10:48:57;;;;;;;5.00;3.67;;;;;;;;;;5004424;28;20026;-43
2022/07/25 10:51:27;;;;;;;5.78;3.92;;;;;;;;;;4997433;28;20021;-43
2022/07/25 10:53:52;;;;;;;8.63;4.13;;;;;;;;;;4993915;28;20026;-44
2022/07/25 10:56:20;;;;;;;7.47;3.58;;;;;;;;;;5005348;28;20046;-43
2022/07/25 10:58:56;;;;;;;5.30;3.45;;;;;;;;;;4993560;28;20060;-43
2022/07/25 11:01:26;;;;;;;5.30;3.85;;;;;;;;;;5003627;28;20121;-48
2022/07/25 11:03:57;;;;;;;4.75;3.50;;;;;;;;;;4996522;28;20025;-45
2022/07/25 11:06:30;;;;;;;5.88;3.70;;;;;;;;;;5007025;28;20037;-43
2022/07/25 11:08:59;;;;;;;5.97;3.67;;;;;;;;;;5006503;28;20048;-44
2022/07/25 11:11:39;;;;;;;6.97;4.00;;;;;;;;;;5007589;28;20034;-43
2022/07/25 11:14:23;;;;;;;7.25;3.60;;;;;;;;;;5003681;28;20042;-43
2022/07/25 11:16:51;;;;;;;8.60;4.38;;;;;;;;;;5006440;28;20434;-43
2022/07/25 11:19:27;;;;;;;7.25;4.47;;;;;;;;;;5004768;28;20389;-46
2022/07/25 11:21:59;;;;;;;8.35;4.30;;;;;;;;;;5009513;28;20022;-45
2022/07/25 11:24:43;;;;;;;6.45;4.05;;;;;;;;;;5007877;28;20048;-43
2022/07/25 11:27:11;;;;;;;13.55;4.20;;;;;;;;;;5005902;28;20120;-43
2022/07/25 11:29:38;;;;;;;5.95;4.35;;;;;;;;;;5008875;28;20057;-46
2022/07/25 11:32:07;;;;;;;7.05;4.30;;;;;;;;;;5002111;28;20510;-46
2022/07/25 11:34:36;;;;;;;4.53;4.15;;;;;;;;;;4994971;28;20037;-48
2022/07/25 11:37:04;;;;;;;13.32;4.55;;;;;;;;;;5006046;28;20030;-45
2022/07/25 11:39:33;;;;;;;5.82;4.53;;;;;;;;;;5003172;28;20123;-45
2022/07/25 11:42:08;;;;;;;7.20;4.28;;;;;;;;;;4999823;28;20029;-45
2022/07/25 11:44:36;;;;;;;6.93;4.28;;;;;;;;;;5009163;28;20038;-43
2022/07/25 11:47:20;;;;;;;16.02;4.38;;;;;;;;;;5007804;28;20121;-42
2022/07/25 11:49:48;;;;;;;7.53;4.47;;;;;;;;;;5000617;28;20033;-48
2022/07/25 11:52:34;;;;;;;12.55;4.20;;;;;;;;;;5006436;28;20033;-47
2022/07/25 11:55:01;;;;;;;8.80;3.88;;;;;;;;;;5003732;28;20115;-44
2022/07/25 11:57:33;;;;;;;9.05;4.25;;;;;;;;;;5007388;28;20026;-49
2022/07/25 12:00:01;;;;;;;11.85;5.65;;;;;;;;;;5006154;28;20034;-44
2022/07/25 12:02:31;;;;;;;12.10;5.30;;;;;;;;;;5003095;28;20380;-44
2022/07/25 12:05:05;;;;;;;10.50;5.60;;;;;;;;;;4994162;28;20415;-48
2022/07/25 12:07:44;;;;;;;11.45;5.32;;;;;;;;;;5009616;28;20049;-44
2022/07/25 12:10:11;;;;;;;9.43;5.43;;;;;;;;;;4999646;28;20038;-43
2022/07/25 12:12:54;;;;;;;12.55;5.65;;;;;;;;;;5005614;28;20081;-43
2022/07/25 12:15:26;;;;;;;14.77;6.07;;;;;;;;;;5001115;28;20041;-44
2022/07/25 12:17:54;;;;;;;12.75;5.55;;;;;;;;;;5009410;28;20030;-45
2022/07/25 12:20:25;;;;;;;10.95;5.80;;;;;;;;;;5006704;28;20033;-44
2022/07/25 12:22:53;;;;;;;6.78;5.32;;;;;;;;;;5004347;28;20038;-45
2022/07/25 12:25:19;;;;;;;10.00;5.65;;;;;;;;;;5008493;28;20022;-44
2022/07/25 12:27:45;;;;;;;12.00;6.15;;;;;;;;;;5007636;28;20067;-43
2022/07/25 12:30:11;;;;;;;18.45;6.57;;;;;;;;;;5007309;28;20026;-43
2022/07/25 12:32:37;;;;;;;10.55;5.13;;;;;;;;;;5006502;28;20452;-44
2022/07/25 12:35:05;;;;;;;6.32;5.20;;;;;;;;;;5005602;28;20026;-44
2022/07/25 12:37:31;;;;;;;11.35;5.50;;;;;;;;;;5001162;28;20033;-49
2022/07/25 12:39:57;;;;;;;10.32;5.40;;;;;;;;;;5003099;28;20026;-43
2022/07/25 12:42:24;;;;;;;12.77;6.00;;;;;;;;;;5007749;28;20105;-42
2022/07/25 12:44:49;;;;;;;10.75;5.88;;;;;;;;;;5005513;28;20022;-45
2022/07/25 12:47:15;;;;;;;9.55;5.78;;;;;;;;;;5003622;28;20049;-45
2022/07/25 12:49:41;;;;;;;13.25;6.05;;;;;;;;;;5004701;28;20030;-45
2022/07/25 12:52:07;;;;;;;14.02;5.72;;;;;;;;;;5005178;28;20145;-45
2022/07/25 12:54:33;;;;;;;13.82;6.18;;;;;;;;;;5004846;28;20100;-45
2022/07/25 12:56:59;;;;;;;14.63;6.30;;;;;;;;;;5001887;28;20033;-45
2022/07/25 12:59:24;;;;;;;8.15;5.80;;;;;;;;;;5012219;28;20736;-45
2022/07/25 13:01:50;;;;;;;8.98;5.53;;;;;;;;;;5008185;28;20057;-43
2022/07/25 13:04:16;;;;;;;12.32;5.50;;;;;;;;;;5007028;28;20038;-44
2022/07/25 13:06:41;;;;;;;7.43;5.40;;;;;;;;;;5007535;28;20037;-43
2022/07/25 13:09:07;;;;;;;11.40;5.68;;;;;;;;;;5005598;28;20406;-45
2022/07/25 13:11:33;;;;;;;15.55;5.82;;;;;;;;;;5003431;28;20080;-44
2022/07/25 13:13:59;;;;;;;23.60;5.88;;;;;;;;;;5007574;28;20030;-49
2022/07/25 13:16:24;;;;;;;10.90;5.55;;;;;;;;;;5009207;28;20065;-45
2022/07/25 13:18:50;;;;;;;15.60;5.53;;;;;;;;;;5005633;28;20048;-46
2022/07/25 13:21:17;;;;;;;20.45;5.45;;;;;;;;;;5002465;28;20030;-46
2022/07/25 13:23:43;;;;;;;14.43;5.53;;;;;;;;;;5001604;28;20057;-44
2022/07/25 13:26:09;;;;;;;15.02;5.15;;;;;;;;;;5003645;28;20113;-47
2022/07/25 13:28:35;;;;;;;8.40;5.30;;;;;;;;;;5004909;28;20045;-44
2022/07/25 13:31:00;;;;;;;13.48;5.63;;;;;;;;;;5003190;28;20034;-43
2022/07/25 13:33:29;;;;;;;10.38;5.60;;;;;;;;;;4993200;28;20526;-44
2022/07/25 13:35:55;;;;;;;12.20;5.57;;;;;;;;;;5008034;28;20033;-45
2022/07/25 13:38:20;;;;;;;9.18;5.63;;;;;;;;;;5003993;28;20037;-43
2022/07/25 13:40:46;;;;;;;11.48;5.75;;;;;;;;;;5001488;28;20039;-46
2022/07/25 13:43:12;;;;;;;12.27;5.72;;;;;;;;;;5008113;28;20422;-43
2022/07/25 13:45:40;;;;;;;9.82;5.82;;;;;;;;;;5008615;28;20021;-43
2022/07/25 13:48:06;;;;;;;14.00;5.53;;;;;;;;;;4991201;28;20026;-47
2022/07/25 13:50:32;;;;;;;11.00;4.68;;;;;;;;;;5009305;28;20028;-48
2022/07/25 13:52:59;;;;;;;8.65;5.05;;;;;;;;;;5002458;28;20022;-44
2022/07/25 13:55:32;;;;;;;7.63;5.13;;;;;;;;;;5011606;28;20456;-44
2022/07/25 13:57:57;;;;;;;9.80;5.05;;;;;;;;;;5010454;28;20110;-44
2022/07/25 14:00:23;;;;;;;8.50;5.30;;;;;;;;;;5009093;28;20037;-43
2022/07/25 14:02:49;;;;;;;16.90;6.18;;;;;;;;;;5011038;28;20363;-45
2022/07/25 14:05:15;;;;;;;7.90;4.82;;;;;;;;;;5004374;28;20022;-44
2022/07/25 14:07:41;;;;;;;11.15;5.25;;;;;;;;;;5005215;28;20109;-43
2022/07/25 14:10:07;;;;;;;10.55;5.05;;;;;;;;;;5008777;28;20104;-43
2022/07/25 14:12:34;;;;;;;9.48;5.13;;;;;;;;;;5007282;28;20030;-43
2022/07/25 14:15:00;;;;;;;7.47;5.00;;;;;;;;;;5007749;28;20037;-43
2022/07/25 14:17:26;;;;;;;9.05;4.80;;;;;;;;;;5003395;28;20026;-43
2022/07/25 14:19:52;;;;;;;9.07;4.90;;;;;;;;;;5007978;28;20034;-46
2022/07/25 14:22:18;;;;;;;8.55;3.90;;;;;;;;;;5005145;28;20018;-43
2022/07/25 14:24:44;;;;;;;12.38;4.57;;;;;;;;;;5008231;28;20053;-47
2022/07/25 14:27:10;;;;;;;7.13;4.40;;;;;;;;;;5004672;28;20030;-43
2022/07/25 14:29:36;;;;;;;6.63;4.68;;;;;;;;;;5006898;28;20107;-45
2022/07/25 14:32:05;;;;;;;9.13;4.50;;;;;;;;;;5003936;28;20057;-43
2022/07/25 14:34:31;;;;;;;6.97;4.57;;;;;;;;;;5006311;28;20121;-43
2022/07/25 14:36:57;;;;;;;8.93;5.10;;;;;;;;;;5003216;28;20025;-43
2022/07/25 14:39:23;;;;;;;11.43;5.88;;;;;;;;;;5006755;28;20076;-44
2022/07/25 14:41:48;;;;;;;10.00;4.78;;;;;;;;;;5008079;28;20410;-43
2022/07/25 14:44:14;;;;;;;13.85;4.75;;;;;;;;;;5008277;28;20028;-46